createdAt,value
2018-06-17T00:02:06.259Z,16.40
2018-06-17T00:04:34.649Z,16.40
2018-06-17T00:07:03.073Z,16.48
2018-06-17T00:09:31.593Z,16.51
2018-06-17T00:12:00.053Z,16.47
2018-06-17T00:14:28.488Z,16.47
2018-06-17T00:16:57.141Z,16.43
2018-06-17T00:19:25.556Z,16.43
2018-06-17T00:21:53.964Z,16.30
2018-06-17T00:24:22.696Z,16.35
2018-06-17T00:26:51.472Z,16.23
2018-06-17T00:29:20.792Z,16.14
2018-06-17T00:31:49.320Z,16.13
2018-06-17T00:34:17.703Z,16.10
2018-06-17T00:36:46.979Z,16.10
2018-06-17T00:39:15.396Z,16.16
2018-06-17T00:41:43.787Z,16.18
2018-06-17T00:44:12.219Z,16.15
2018-06-17T00:46:42.053Z,16.06
2018-06-17T00:49:11.041Z,16.05
2018-06-17T00:51:39.493Z,16.02
2018-06-17T00:54:08.291Z,15.94
2018-06-17T00:56:36.705Z,15.87
2018-06-17T00:59:05.252Z,15.78
2018-06-17T01:01:33.843Z,15.74
2018-06-17T01:04:02.386Z,15.77
2018-06-17T01:06:30.869Z,15.72
2018-06-17T01:09:00.244Z,15.61
2018-06-17T01:11:29.769Z,15.61
2018-06-17T01:13:58.394Z,15.54
2018-06-17T01:16:27.696Z,15.48
2018-06-17T01:18:56.786Z,15.41
2018-06-17T01:21:25.201Z,15.39
2018-06-17T01:23:53.579Z,15.38
2018-06-17T01:26:21.963Z,15.34
2018-06-17T01:28:50.361Z,15.32
2018-06-17T01:31:18.752Z,15.33
2018-06-17T01:33:47.114Z,15.42
2018-06-17T01:36:15.550Z,15.43
2018-06-17T01:38:44.910Z,15.46
2018-06-17T01:41:13.315Z,15.49
2018-06-17T01:43:41.743Z,15.49
2018-06-17T01:46:10.170Z,15.50
2018-06-17T01:48:38.681Z,15.49
2018-06-17T01:51:08.302Z,15.37
2018-06-17T01:53:36.640Z,15.36
2018-06-17T01:56:05.059Z,15.33
2018-06-17T01:58:34.353Z,15.26
2018-06-17T02:01:02.802Z,15.20
2018-06-17T02:03:36.372Z,15.13
2018-06-17T02:08:12.376Z,15.07
2018-06-17T02:10:46.028Z,14.99
2018-06-17T02:13:14.467Z,14.93
2018-06-17T02:15:42.880Z,15.01
2018-06-17T02:18:11.315Z,15.03
2018-06-17T02:20:39.749Z,15.09
2018-06-17T02:23:08.140Z,15.08
2018-06-17T02:25:36.519Z,15.08
2018-06-17T02:28:04.967Z,15.05
2018-06-17T02:30:33.402Z,15.07
2018-06-17T02:33:01.897Z,15.14
2018-06-17T02:35:30.962Z,15.15
2018-06-17T02:37:59.359Z,15.13
2018-06-17T02:40:27.824Z,15.01
2018-06-17T02:42:56.235Z,14.98
2018-06-17T02:45:30.345Z,14.85
2018-06-17T02:48:03.994Z,14.87
2018-06-17T02:50:37.874Z,14.99
2018-06-17T02:53:11.343Z,15.01
2018-06-17T02:55:39.776Z,14.89
2018-06-17T02:58:08.224Z,14.91
2018-06-17T03:00:37.225Z,14.89
2018-06-17T03:03:05.863Z,14.91
2018-06-17T03:05:34.573Z,14.98
2018-06-17T03:08:03.741Z,15.00
2018-06-17T03:10:32.109Z,14.93
2018-06-17T03:13:00.495Z,14.90
2018-06-17T03:15:28.921Z,14.95
2018-06-17T03:17:57.345Z,14.94
2018-06-17T03:20:25.751Z,14.90
2018-06-17T03:22:54.174Z,14.91
2018-06-17T03:25:27.664Z,14.93
2018-06-17T03:28:02.103Z,14.95
2018-06-17T03:30:35.676Z,15.00
2018-06-17T03:33:09.477Z,15.09
2018-06-17T03:36:15.139Z,15.16
2018-06-17T03:38:43.637Z,15.21
2018-06-17T03:41:12.812Z,15.16
2018-06-17T03:43:42.089Z,15.16
2018-06-17T03:46:10.853Z,15.23
2018-06-17T03:48:39.404Z,15.25
2018-06-17T03:51:07.980Z,15.20
2018-06-17T03:53:36.424Z,15.22
2018-06-17T03:56:04.812Z,15.18
2018-06-17T03:58:33.199Z,15.19
2018-06-17T04:01:01.614Z,15.20
2018-06-17T04:03:29.992Z,15.13
2018-06-17T04:05:58.428Z,15.15
2018-06-17T04:08:26.828Z,15.22
2018-06-17T04:10:55.695Z,15.27
2018-06-17T04:13:24.124Z,15.32
2018-06-17T04:15:52.530Z,15.34
2018-06-17T04:18:20.958Z,15.28
2018-06-17T04:20:49.383Z,15.33
2018-06-17T04:23:18.444Z,15.33
2018-06-17T04:25:46.814Z,15.26
2018-06-17T04:28:16.188Z,15.32
2018-06-17T04:30:44.580Z,15.35
2018-06-17T04:33:13.008Z,15.39
2018-06-17T04:35:42.383Z,15.46
2018-06-17T04:38:10.836Z,15.47
2018-06-17T04:40:39.315Z,15.49
2018-06-17T04:43:07.677Z,15.50
2018-06-17T04:45:36.084Z,15.55
2018-06-17T04:48:04.486Z,15.57
2018-06-17T04:50:32.876Z,15.57
2018-06-17T04:53:01.264Z,15.59
2018-06-17T04:55:29.678Z,15.61
2018-06-17T04:57:58.115Z,15.61
2018-06-17T05:00:26.543Z,15.58
2018-06-17T05:02:54.940Z,15.60
2018-06-17T05:05:23.352Z,15.64
2018-06-17T05:07:51.792Z,15.62
2018-06-17T05:10:20.161Z,15.60
2018-06-17T05:12:48.602Z,15.58
2018-06-17T05:15:16.994Z,15.61
2018-06-17T05:17:45.392Z,15.61
2018-06-17T05:20:13.861Z,15.65
2018-06-17T05:22:42.254Z,15.69
2018-06-17T05:25:10.654Z,15.71
2018-06-17T05:27:39.274Z,15.73
2018-06-17T05:30:07.676Z,15.72
2018-06-17T05:32:36.095Z,15.77
2018-06-17T05:35:04.579Z,15.84
2018-06-17T05:37:32.964Z,15.90
2018-06-17T05:40:01.392Z,15.95
2018-06-17T05:42:29.817Z,15.97
2018-06-17T05:44:58.234Z,16.01
2018-06-17T05:47:26.653Z,15.98
2018-06-17T05:49:54.981Z,16.01
2018-06-17T05:52:23.413Z,16.01
2018-06-17T05:54:51.794Z,15.98
2018-06-17T05:57:20.229Z,15.98
2018-06-17T05:59:48.612Z,15.93
2018-06-17T06:02:17.002Z,16.00
2018-06-17T06:04:45.512Z,16.06
2018-06-17T06:07:13.996Z,16.04
2018-06-17T06:09:42.426Z,16.11
2018-06-17T06:12:10.998Z,16.12
2018-06-17T06:14:40.029Z,16.16
2018-06-17T06:17:08.453Z,16.14
2018-06-17T06:19:36.828Z,16.07
2018-06-17T06:22:05.224Z,16.08
2018-06-17T06:24:33.754Z,16.06
2018-06-17T06:27:02.178Z,16.10
2018-06-17T06:29:31.864Z,16.07
2018-06-17T06:32:00.238Z,16.11
2018-06-17T06:34:28.636Z,16.13
2018-06-17T06:36:57.072Z,16.14
2018-06-17T06:39:26.114Z,16.16
2018-06-17T06:41:54.558Z,16.18
2018-06-17T06:44:22.943Z,16.25
2018-06-17T06:46:51.368Z,16.31
2018-06-17T06:49:19.778Z,16.38
2018-06-17T06:51:48.174Z,16.37
2018-06-17T06:54:16.589Z,16.35
2018-06-17T06:56:45.100Z,16.36
2018-06-17T06:59:14.693Z,16.39
2018-06-17T07:01:54.235Z,16.40
2018-06-17T07:04:33.681Z,16.41
2018-06-17T07:07:13.252Z,16.41
2018-06-17T07:09:52.865Z,16.43
2018-06-17T07:12:21.290Z,16.53
2018-06-17T07:14:49.669Z,16.64
2018-06-17T07:17:29.377Z,16.77
2018-06-17T07:19:57.769Z,16.81
2018-06-17T07:22:26.198Z,16.86
2018-06-17T07:24:54.594Z,16.88
2018-06-17T07:27:34.160Z,16.91
2018-06-17T07:30:02.578Z,16.83
2018-06-17T07:32:31.042Z,16.79
2018-06-17T07:34:59.453Z,16.77
2018-06-17T07:37:27.931Z,16.74
2018-06-17T07:40:46.467Z,16.71
2018-06-17T07:43:14.929Z,16.74
2018-06-17T07:45:43.588Z,16.76
2018-06-17T07:48:13.445Z,16.82
2018-06-17T07:50:52.901Z,16.91
2018-06-17T07:53:21.403Z,16.99
2018-06-17T07:55:49.804Z,17.01
2018-06-17T07:58:18.197Z,17.06
2018-06-17T08:00:46.623Z,17.13
2018-06-17T08:03:15.041Z,17.07
2018-06-17T08:05:44.188Z,17.09
2018-06-17T08:08:12.552Z,17.08
2018-06-17T08:10:41.056Z,17.08
2018-06-17T08:13:09.811Z,17.18
2018-06-17T08:15:38.188Z,17.25
2018-06-17T08:18:06.608Z,17.25
2018-06-17T08:20:35.047Z,17.23
2018-06-17T08:23:03.452Z,17.25
2018-06-17T08:25:31.816Z,17.27
2018-06-17T08:28:00.193Z,17.25
2018-06-17T08:30:28.612Z,17.25
2018-06-17T08:32:57.044Z,17.29
2018-06-17T08:35:25.469Z,17.36
2018-06-17T08:37:53.849Z,17.44
2018-06-17T08:40:22.211Z,17.52
2018-06-17T08:42:50.595Z,17.58
2018-06-17T08:45:20.109Z,17.63
2018-06-17T08:47:48.495Z,17.60
2018-06-17T08:50:16.871Z,17.55
2018-06-17T08:52:46.633Z,17.52
2018-06-17T08:55:15.008Z,17.48
2018-06-17T08:57:43.528Z,17.53
2018-06-17T09:00:12.870Z,17.59
2018-06-17T09:02:41.237Z,17.67
2018-06-17T09:05:09.622Z,17.73
2018-06-17T09:07:38.032Z,17.67
2018-06-17T09:10:06.456Z,17.67
2018-06-17T09:12:34.920Z,17.68
2018-06-17T09:15:03.362Z,17.73
2018-06-17T09:17:32.274Z,17.77
2018-06-17T09:20:01.513Z,17.76
2018-06-17T09:22:29.954Z,17.71
2018-06-17T09:24:58.412Z,17.73
2018-06-17T09:27:27.546Z,17.74
2018-06-17T09:29:56.214Z,17.83
2018-06-17T09:32:24.699Z,17.81
2018-06-17T09:34:54.144Z,17.81
2018-06-17T09:37:22.561Z,17.81
2018-06-17T09:39:50.988Z,17.81
2018-06-17T09:42:19.360Z,17.84
2018-06-17T09:44:49.608Z,17.95
2018-06-17T09:47:18.585Z,18.09
2018-06-17T09:49:47.964Z,18.03
2018-06-17T09:52:16.604Z,18.02
2018-06-17T09:54:45.047Z,18.04
2018-06-17T09:57:13.508Z,18.02
2018-06-17T09:59:41.939Z,18.03
2018-06-17T10:02:10.343Z,17.98
2018-06-17T10:04:39.620Z,17.94
2018-06-17T10:07:07.971Z,17.85
2018-06-17T10:09:45.725Z,17.93
2018-06-17T10:12:14.174Z,18.00
2018-06-17T10:14:42.884Z,18.07
2018-06-17T10:17:11.340Z,18.21
2018-06-17T10:19:39.723Z,18.29
2018-06-17T10:22:08.184Z,18.23
2018-06-17T10:24:37.163Z,18.16
2018-06-17T10:27:05.569Z,18.13
2018-06-17T10:29:33.989Z,18.16
2018-06-17T10:32:02.382Z,18.33
2018-06-17T10:34:30.833Z,18.46
2018-06-17T10:36:59.220Z,18.41
2018-06-17T10:39:27.619Z,18.58
2018-06-17T10:41:56.006Z,18.48
2018-06-17T10:44:24.493Z,18.33
2018-06-17T10:46:53.487Z,18.14
2018-06-17T10:49:21.880Z,18.07
2018-06-17T10:51:50.502Z,18.06
2018-06-17T10:54:18.888Z,18.09
2018-06-17T10:56:47.307Z,18.18
2018-06-17T10:59:15.761Z,18.20
2018-06-17T11:01:44.195Z,18.23
2018-06-17T11:04:12.822Z,18.19
2018-06-17T11:06:41.992Z,18.23
2018-06-17T11:09:10.365Z,18.18
2018-06-17T11:11:38.793Z,18.32
2018-06-17T11:14:07.232Z,18.35
2018-06-17T11:16:35.621Z,18.36
2018-06-17T11:19:04.038Z,18.32
2018-06-17T11:21:32.472Z,18.30
2018-06-17T11:24:01.116Z,18.30
2018-06-17T11:26:29.736Z,18.26
2018-06-17T11:28:58.083Z,18.30
2018-06-17T11:31:26.500Z,18.32
2018-06-17T11:33:55.584Z,18.39
2018-06-17T11:36:23.987Z,18.31
2018-06-17T11:38:52.668Z,18.40
2018-06-17T11:41:21.061Z,18.34
2018-06-17T11:43:49.559Z,18.26
2018-06-17T11:46:18.153Z,18.19
2018-06-17T11:48:46.786Z,18.13
2018-06-17T11:51:15.216Z,18.08
2018-06-17T11:53:43.751Z,18.09
2018-06-17T11:56:12.183Z,18.17
2018-06-17T11:58:40.622Z,18.15
2018-06-17T12:01:09.094Z,18.14
2018-06-17T12:03:37.656Z,18.05
2018-06-17T12:06:06.143Z,17.94
2018-06-17T12:08:34.594Z,17.88
2018-06-17T12:11:02.960Z,17.81
2018-06-17T12:13:31.496Z,17.79
2018-06-17T12:16:00.588Z,17.85
2018-06-17T12:18:29.609Z,17.87
2018-06-17T12:20:58.020Z,18.01
2018-06-17T12:23:26.440Z,18.00
2018-06-17T12:25:54.995Z,18.03
2018-06-17T12:28:23.523Z,18.01
2018-06-17T12:30:51.973Z,17.97
2018-06-17T12:33:20.500Z,17.91
2018-06-17T12:35:48.897Z,17.80
2018-06-17T12:38:17.312Z,17.77
2018-06-17T12:40:45.750Z,17.86
2018-06-17T12:43:14.376Z,17.90
2018-06-17T12:45:44.032Z,17.92
2018-06-17T12:48:12.413Z,18.04
2018-06-17T12:50:40.801Z,18.29
2018-06-17T12:53:09.962Z,18.42
2018-06-17T12:55:38.432Z,18.55
2018-06-17T12:58:07.054Z,18.47
2018-06-17T13:00:35.443Z,18.49
2018-06-17T13:03:04.035Z,18.47
2018-06-17T13:05:32.521Z,18.17
2018-06-17T13:08:00.919Z,18.25
2018-06-17T13:10:31.424Z,18.21
2018-06-17T13:12:59.805Z,18.57
2018-06-17T13:15:28.213Z,18.85
2018-06-17T13:17:56.840Z,19.24
2018-06-17T13:20:25.249Z,19.14
2018-06-17T13:22:53.748Z,19.12
2018-06-17T13:25:22.145Z,19.02
2018-06-17T13:27:50.591Z,19.02
2018-06-17T13:30:18.975Z,18.91
2018-06-17T13:32:47.372Z,18.96
2018-06-17T13:35:15.808Z,19.02
2018-06-17T13:37:44.230Z,18.82
2018-06-17T13:40:13.074Z,18.75
2018-06-17T13:42:42.167Z,18.71
2018-06-17T13:45:10.724Z,18.56
2018-06-17T13:47:39.350Z,18.66
2018-06-17T13:50:07.748Z,18.58
2018-06-17T13:52:37.048Z,18.47
2018-06-17T13:55:05.503Z,18.43
2018-06-17T13:57:33.935Z,18.38
2018-06-17T14:00:02.392Z,18.43
2018-06-17T14:02:30.804Z,18.38
2018-06-17T14:04:59.461Z,18.42
2018-06-17T14:07:27.985Z,18.41
2018-06-17T14:09:56.667Z,18.24
2018-06-17T14:12:25.101Z,18.15
2018-06-17T14:14:53.529Z,18.11
2018-06-17T14:17:21.933Z,18.17
2018-06-17T14:19:50.388Z,18.31
2018-06-17T14:22:19.508Z,18.47
2018-06-17T14:24:47.935Z,18.48
2018-06-17T14:27:16.493Z,18.38
2018-06-17T14:29:44.849Z,18.29
2018-06-17T14:32:14.395Z,18.26
2018-06-17T14:34:43.043Z,18.28
2018-06-17T14:37:11.576Z,18.22
2018-06-17T14:39:40.024Z,18.23
2018-06-17T14:42:13.648Z,18.15
2018-06-17T14:44:47.271Z,18.17
2018-06-17T14:47:21.500Z,18.18
2018-06-17T14:49:55.347Z,18.32
2018-06-17T14:52:30.783Z,18.48
2018-06-17T14:54:59.288Z,18.54
2018-06-17T14:57:28.574Z,18.46
2018-06-17T14:59:57.106Z,18.55
2018-06-17T15:02:25.560Z,18.46
2018-06-17T15:04:53.996Z,18.33
2018-06-17T15:07:22.398Z,18.26
2018-06-17T15:09:50.760Z,18.41
2018-06-17T15:12:19.171Z,18.33
2018-06-17T15:14:47.615Z,18.09
2018-06-17T15:17:16.101Z,18.04
2018-06-17T15:19:45.467Z,18.03
2018-06-17T15:22:13.881Z,17.99
2018-06-17T15:24:42.313Z,18.04
2018-06-17T15:27:10.749Z,18.13
2018-06-17T15:29:39.132Z,18.24
2018-06-17T15:32:12.940Z,18.23
2018-06-17T15:34:46.685Z,18.11
2018-06-17T15:37:20.313Z,18.20
2018-06-17T15:39:50.750Z,18.20
2018-06-17T15:42:19.196Z,18.13
2018-06-17T15:44:47.564Z,18.09
2018-06-17T15:47:15.988Z,17.98
2018-06-17T15:49:46.465Z,17.92
2018-06-17T15:52:14.895Z,17.93
2018-06-17T15:54:44.232Z,17.95
2018-06-17T15:57:13.681Z,18.05
2018-06-17T15:59:42.192Z,18.09
2018-06-17T16:02:10.617Z,18.13
2018-06-17T16:04:39.024Z,18.17
2018-06-17T16:07:07.412Z,18.16
2018-06-17T16:09:35.860Z,18.13
2018-06-17T16:12:09.659Z,18.11
2018-06-17T16:14:43.474Z,17.94
2018-06-17T16:17:17.208Z,17.98
2018-06-17T16:19:50.651Z,18.03
2018-06-17T16:22:19.126Z,18.12
2018-06-17T16:24:48.580Z,18.22
2018-06-17T16:27:17.338Z,18.29
2018-06-17T16:29:45.785Z,18.31
2018-06-17T16:32:14.243Z,18.20
2018-06-17T16:34:42.701Z,18.22
2018-06-17T16:37:11.217Z,18.03
2018-06-17T16:39:40.136Z,18.10
2018-06-17T16:42:08.605Z,18.09
2018-06-17T16:44:37.066Z,18.14
2018-06-17T16:47:06.064Z,18.11
2018-06-17T16:49:34.578Z,18.02
2018-06-17T16:52:08.346Z,18.10
2018-06-17T16:54:42.004Z,18.08
2018-06-17T16:57:15.639Z,18.07
2018-06-17T16:59:49.477Z,18.00
2018-06-17T17:02:18.925Z,17.97
2018-06-17T17:04:47.273Z,17.93
2018-06-17T17:07:15.704Z,17.87
2018-06-17T17:09:44.125Z,17.87
2018-06-17T17:12:12.560Z,17.88
2018-06-17T17:14:41.016Z,17.88
2018-06-17T17:17:09.712Z,17.85
2018-06-17T17:19:38.353Z,17.93
2018-06-17T17:22:06.792Z,17.86
2018-06-17T17:24:35.194Z,17.76
2018-06-17T17:27:04.140Z,17.77
2018-06-17T17:29:32.598Z,17.69
2018-06-17T17:32:06.376Z,17.63
2018-06-17T17:34:40.116Z,17.74
2018-06-17T17:37:13.852Z,17.82
2018-06-17T17:39:47.532Z,17.91
2018-06-17T17:42:15.929Z,17.93
2018-06-17T17:44:49.815Z,17.99
2018-06-17T17:47:23.512Z,18.00
2018-06-17T17:49:52.434Z,17.95
2018-06-17T17:52:21.654Z,17.98
2018-06-17T17:54:50.195Z,18.04
2018-06-17T17:57:19.441Z,18.08
2018-06-17T17:59:48.460Z,17.95
2018-06-17T18:02:17.109Z,17.98
2018-06-17T18:04:46.161Z,17.93
2018-06-17T18:07:15.197Z,17.74
2018-06-17T18:09:43.627Z,17.63
2018-06-17T18:12:12.265Z,17.67
2018-06-17T18:14:40.672Z,17.69
2018-06-17T18:17:09.084Z,17.76
2018-06-17T18:19:37.456Z,17.83
2018-06-17T18:22:06.078Z,17.89
2018-06-17T18:24:34.543Z,17.91
2018-06-17T18:28:05.673Z,17.89
2018-06-17T18:30:39.537Z,17.93
2018-06-17T18:33:13.343Z,17.88
2018-06-17T18:35:46.941Z,17.84
2018-06-17T18:38:15.660Z,17.80
2018-06-17T18:40:44.531Z,17.79
2018-06-17T18:43:13.635Z,17.68
2018-06-17T18:45:42.160Z,17.63
2018-06-17T18:48:11.172Z,17.60
2018-06-17T18:50:40.471Z,17.55
2018-06-17T18:53:09.533Z,17.44
2018-06-17T18:55:37.914Z,17.47
2018-06-17T18:58:06.476Z,17.52
2018-06-17T19:00:34.949Z,17.55
2018-06-17T19:03:03.405Z,17.50
2018-06-17T19:05:31.837Z,17.56
2018-06-17T19:08:00.314Z,17.59
2018-06-17T19:10:34.280Z,17.61
2018-06-17T19:13:08.030Z,17.58
2018-06-17T19:15:41.812Z,17.57
2018-06-17T19:18:12.793Z,17.57
2018-06-17T19:20:42.127Z,17.50
2018-06-17T19:23:10.567Z,17.48
2018-06-17T19:25:39.021Z,17.49
2018-06-17T19:28:07.425Z,17.47
2018-06-17T19:30:35.857Z,17.46
2018-06-17T19:33:05.054Z,17.49
2018-06-17T19:35:34.720Z,17.47
2018-06-17T19:38:03.190Z,17.48
2018-06-17T19:40:31.607Z,17.48
2018-06-17T19:43:00.409Z,17.43
2018-06-17T19:45:29.001Z,17.45
2018-06-17T19:47:57.462Z,17.39
2018-06-17T19:50:31.148Z,17.37
2018-06-17T19:53:04.830Z,17.36
2018-06-17T19:55:38.917Z,17.32
2018-06-17T19:58:13.582Z,17.36
2018-06-17T20:00:43.856Z,17.35
2018-06-17T20:03:12.361Z,17.35
2018-06-17T20:05:40.989Z,17.30
2018-06-17T20:08:09.457Z,17.32
2018-06-17T20:10:38.217Z,17.31
2018-06-17T20:13:07.252Z,17.31
2018-06-17T20:15:35.885Z,17.31
2018-06-17T20:18:04.300Z,17.29
2018-06-17T20:20:32.866Z,17.28
2018-06-17T20:23:01.301Z,17.22
2018-06-17T20:25:30.217Z,17.24
2018-06-17T20:27:58.668Z,17.24
2018-06-17T20:30:27.068Z,17.22
2018-06-17T20:33:00.862Z,17.24
2018-06-17T20:35:34.536Z,17.25
2018-06-17T20:38:08.772Z,17.26
2018-06-17T20:40:42.747Z,17.24
2018-06-17T20:43:16.473Z,17.20
2018-06-17T20:45:45.036Z,17.19
2018-06-17T20:48:13.623Z,17.17
2018-06-17T20:50:42.039Z,17.16
2018-06-17T20:53:10.543Z,17.10
2018-06-17T20:55:38.979Z,17.05
2018-06-17T20:58:07.484Z,17.04
2018-06-17T21:00:35.990Z,17.09
2018-06-17T21:03:04.828Z,17.06
2018-06-17T21:05:33.266Z,17.05
2018-06-17T21:08:02.581Z,17.08
2018-06-17T21:10:32.289Z,17.09
2018-06-17T21:13:00.690Z,17.09
2018-06-17T21:15:29.100Z,17.05
2018-06-17T21:17:57.500Z,16.94
2018-06-17T21:20:31.128Z,16.92
2018-06-17T21:23:05.008Z,16.94
2018-06-17T21:25:38.447Z,16.92
2018-06-17T21:28:07.138Z,16.84
2018-06-17T21:30:35.524Z,16.87
2018-06-17T21:33:04.037Z,16.86
2018-06-17T21:35:32.420Z,16.85
2018-06-17T21:38:00.844Z,16.81
2018-06-17T21:40:29.260Z,16.82
2018-06-17T21:42:57.701Z,16.83
2018-06-17T21:45:26.125Z,16.80
2018-06-17T21:47:54.827Z,16.80
2018-06-17T21:50:23.237Z,16.82
2018-06-17T21:52:51.714Z,16.85
2018-06-17T21:55:20.181Z,16.84
2018-06-17T21:57:48.613Z,16.85
2018-06-17T22:00:17.093Z,16.82
2018-06-17T22:02:45.795Z,16.78
2018-06-17T22:05:14.513Z,16.77
2018-06-17T22:07:48.192Z,16.77
2018-06-17T22:10:21.804Z,16.76
2018-06-17T22:12:55.584Z,16.77
2018-06-17T22:15:29.045Z,16.80
2018-06-17T22:17:57.521Z,16.82
2018-06-17T22:20:25.912Z,16.84
2018-06-17T22:22:55.052Z,16.84
2018-06-17T22:25:23.511Z,16.82
2018-06-17T22:27:52.018Z,16.81
2018-06-17T22:30:20.416Z,16.81
2018-06-17T22:32:48.792Z,16.81
2018-06-17T22:35:17.209Z,16.82
2018-06-17T22:37:45.626Z,16.82
2018-06-17T22:40:14.117Z,16.81
2018-06-17T22:42:42.567Z,16.83
2018-06-17T22:45:10.980Z,16.80
2018-06-17T22:47:45.514Z,16.79
2018-06-17T22:50:14.147Z,16.77
2018-06-17T22:52:53.782Z,16.79
2018-06-17T22:55:22.202Z,16.80
2018-06-17T22:57:55.776Z,16.78
2018-06-17T23:00:30.355Z,16.78
2018-06-17T23:03:04.084Z,16.78
2018-06-17T23:05:37.649Z,16.78
2018-06-17T23:08:11.230Z,16.77
2018-06-17T23:10:39.625Z,16.73
2018-06-17T23:13:08.054Z,16.72
2018-06-17T23:15:36.469Z,16.73
2018-06-17T23:18:04.979Z,16.72
2018-06-17T23:20:33.402Z,16.67
2018-06-17T23:23:01.862Z,16.68
2018-06-17T23:25:31.445Z,16.66
2018-06-17T23:27:59.856Z,16.70
2018-06-17T23:30:29.185Z,16.66
2018-06-17T23:32:57.841Z,16.65
2018-06-17T23:35:26.342Z,16.63
2018-06-17T23:37:54.778Z,16.64
2018-06-17T23:40:23.305Z,16.64
2018-06-17T23:42:51.705Z,16.62
2018-06-17T23:45:20.962Z,16.62
2018-06-17T23:47:54.748Z,16.62
2018-06-17T23:50:28.563Z,16.63
2018-06-17T23:53:02.249Z,16.64
2018-06-17T23:55:36.061Z,16.63
2018-06-17T23:58:04.478Z,16.55
